sensor_id;sensor_type;location;lat;lon;timestamp;pressure;altitude;pressure_sealevel;temperature;humidity
21109;BME280;10712;52.944;9.098;2023-04-02T00:08:01;101337.66;;;10.30;48.41
21109;BME280;10712;52.944;9.098;2023-04-02T00:10:58;101344.91;;;10.26;48.37
21109;BME280;10712;52.944;9.098;2023-04-02T00:13:38;101347.06;;;10.18;48.46
21109;BME280;10712;52.944;9.098;2023-04-02T00:16:13;101356.91;;;10.16;48.36
21109;BME280;10712;52.944;9.098;2023-04-02T00:18:52;101355.88;;;10.00;48.90
21109;BME280;10712;52.944;9.098;2023-04-02T00:21:30;101364.69;;;10.02;48.78
21109;BME280;10712;52.944;9.098;2023-04-02T00:24:00;101370.25;;;9.96;48.97
21109;BME280;10712;52.944;9.098;2023-04-02T00:26:35;101369.19;;;10.00;48.89
21109;BME280;10712;52.944;9.098;2023-04-02T00:29:05;101379.25;;;9.94;48.89
21109;BME280;10712;52.944;9.098;2023-04-02T00:31:33;101373.91;;;9.75;49.36
21109;BME280;10712;52.944;9.098;2023-04-02T00:34:03;101377.88;;;9.85;49.27
21109;BME280;10712;52.944;9.098;2023-04-02T00:36:32;101381.19;;;9.90;49.17
21109;BME280;10712;52.944;9.098;2023-04-02T00:39:07;101389.88;;;9.75;49.47
21109;BME280;10712;52.944;9.098;2023-04-02T00:41:36;101384.69;;;9.72;49.78
21109;BME280;10712;52.944;9.098;2023-04-02T00:44:04;101384.41;;;9.78;49.29
21109;BME280;10712;52.944;9.098;2023-04-02T00:46:41;101394.34;;;9.74;49.55
21109;BME280;10712;52.944;9.098;2023-04-02T00:49:38;101396.03;;;9.75;49.47
21109;BME280;10712;52.944;9.098;2023-04-02T00:52:11;101397.72;;;9.78;49.39
21109;BME280;10712;52.944;9.098;2023-04-02T00:54:48;101397.16;;;9.70;49.56
21109;BME280;10712;52.944;9.098;2023-04-02T00:57:24;101404.97;;;9.74;49.43
21109;BME280;10712;52.944;9.098;2023-04-02T00:59:58;101414.53;;;9.78;49.43
21109;BME280;10712;52.944;9.098;2023-04-02T01:02:31;101416.88;;;9.66;50.17
21109;BME280;10712;52.944;9.098;2023-04-02T01:05:06;101424.47;;;9.75;49.67
21109;BME280;10712;52.944;9.098;2023-04-02T01:08:06;101424.97;;;9.83;49.46
21109;BME280;10712;52.944;9.098;2023-04-02T01:19:56;101432.56;;;9.72;49.77
21109;BME280;10712;52.944;9.098;2023-04-02T01:22:43;101441.81;;;9.83;49.68
21109;BME280;10712;52.944;9.098;2023-04-02T01:25:25;101445.59;;;9.78;49.86
21109;BME280;10712;52.944;9.098;2023-04-02T01:28:09;101449.72;;;9.85;49.85
21109;BME280;10712;52.944;9.098;2023-04-02T01:30:36;101455.78;;;9.88;49.58
21109;BME280;10712;52.944;9.098;2023-04-02T01:33:04;101470.75;;;9.91;49.71
21109;BME280;10712;52.944;9.098;2023-04-02T01:35:35;101472.47;;;9.92;49.81
21109;BME280;10712;52.944;9.098;2023-04-02T01:38:29;101473.03;;;9.80;49.92
21109;BME280;10712;52.944;9.098;2023-04-02T01:41:28;101477.00;;;9.90;49.50
21109;BME280;10712;52.944;9.098;2023-04-02T01:44:16;101479.81;;;9.87;49.52
21109;BME280;10712;52.944;9.098;2023-04-02T01:46:47;101483.13;;;9.92;49.49
21109;BME280;10712;52.944;9.098;2023-04-02T01:49:19;101489.31;;;9.93;49.66
21109;BME280;10712;52.944;9.098;2023-04-02T01:51:53;101492.84;;;9.93;49.76
21109;BME280;10712;52.944;9.098;2023-04-02T01:54:24;101497.84;;;10.01;49.75
21109;BME280;10712;52.944;9.098;2023-04-02T01:56:50;101502.56;;;9.94;50.13
21109;BME280;10712;52.944;9.098;2023-04-02T01:59:19;101507.88;;;9.94;49.90
21109;BME280;10712;52.944;9.098;2023-04-02T02:02:02;101514.94;;;9.95;49.91
21109;BME280;10712;52.944;9.098;2023-04-02T02:04:32;101526.34;;;9.77;49.57
21109;BME280;10712;52.944;9.098;2023-04-02T02:07:00;101511.59;;;9.90;49.51
21109;BME280;10712;52.944;9.098;2023-04-02T02:09:32;101522.13;;;9.93;49.42
21109;BME280;10712;52.944;9.098;2023-04-02T02:12:01;101527.50;;;9.92;49.08
21109;BME280;10712;52.944;9.098;2023-04-02T02:14:30;101530.66;;;10.01;48.98
21109;BME280;10712;52.944;9.098;2023-04-02T02:17:01;101525.44;;;9.98;48.93
21109;BME280;10712;52.944;9.098;2023-04-02T02:19:44;101532.88;;;9.90;48.88
21109;BME280;10712;52.944;9.098;2023-04-02T02:22:27;101540.22;;;9.85;49.59
21109;BME280;10712;52.944;9.098;2023-04-02T02:24:57;101537.94;;;9.96;49.16
21109;BME280;10712;52.944;9.098;2023-04-02T02:30:21;101554.13;;;9.92;49.39
21109;BME280;10712;52.944;9.098;2023-04-02T02:38:49;101580.59;;;9.74;50.00
21109;BME280;10712;52.944;9.098;2023-04-02T02:46:53;101595.03;;;9.89;48.90
21109;BME280;10712;52.944;9.098;2023-04-02T02:49:29;101603.44;;;10.00;48.46
21109;BME280;10712;52.944;9.098;2023-04-02T02:52:12;101618.06;;;9.90;48.99
21109;BME280;10712;52.944;9.098;2023-04-02T02:55:16;101619.28;;;10.03;48.56
21109;BME280;10712;52.944;9.098;2023-04-02T02:58:04;101618.34;;;10.04;48.32
21109;BME280;10712;52.944;9.098;2023-04-02T03:00:38;101621.16;;;10.01;48.12
21109;BME280;10712;52.944;9.098;2023-04-02T03:03:12;101626.47;;;10.01;47.98
21109;BME280;10712;52.944;9.098;2023-04-02T03:05:40;101627.34;;;10.02;48.00
21109;BME280;10712;52.944;9.098;2023-04-02T03:08:24;101628.44;;;9.96;47.82
21109;BME280;10712;52.944;9.098;2023-04-02T03:11:08;101638.00;;;9.80;47.82
21109;BME280;10712;52.944;9.098;2023-04-02T03:13:38;101640.34;;;9.66;47.99
21109;BME280;10712;52.944;9.098;2023-04-02T03:16:18;101639.22;;;9.49;48.25
21109;BME280;10712;52.944;9.098;2023-04-02T03:19:01;101646.97;;;9.56;48.12
21109;BME280;10712;52.944;9.098;2023-04-02T03:21:46;101652.66;;;9.46;48.17
21109;BME280;10712;52.944;9.098;2023-04-02T03:24:32;101662.47;;;9.44;48.30
21109;BME280;10712;52.944;9.098;2023-04-02T03:29:40;101659.50;;;9.30;48.56
21109;BME280;10712;52.944;9.098;2023-04-02T03:32:28;101666.16;;;9.19;48.71
21109;BME280;10712;52.944;9.098;2023-04-02T03:35:08;101672.53;;;9.13;49.04
21109;BME280;10712;52.944;9.098;2023-04-02T03:37:47;101675.28;;;9.12;49.15
21109;BME280;10712;52.944;9.098;2023-04-02T03:40:40;101686.94;;;9.07;49.32
21109;BME280;10712;52.944;9.098;2023-04-02T03:43:24;101688.50;;;9.13;49.56
21109;BME280;10712;52.944;9.098;2023-04-02T03:46:50;101692.09;;;9.12;49.88
21109;BME280;10712;52.944;9.098;2023-04-02T03:49:00;101707.81;;;9.18;49.96
21109;BME280;10712;52.944;9.098;2023-04-02T03:52:04;101707.69;;;9.21;50.03
21109;BME280;10712;52.944;9.098;2023-04-02T03:54:32;101718.22;;;9.24;50.04
21109;BME280;10712;52.944;9.098;2023-04-02T03:56:59;101717.31;;;9.25;50.13
21109;BME280;10712;52.944;9.098;2023-04-02T03:59:46;101719.13;;;9.23;50.37
21109;BME280;10712;52.944;9.098;2023-04-02T04:02:46;101727.13;;;9.23;50.65
21109;BME280;10712;52.944;9.098;2023-04-02T04:05:27;101732.22;;;9.29;50.48
21109;BME280;10712;52.944;9.098;2023-04-02T04:08:02;101732.97;;;9.33;50.53
21109;BME280;10712;52.944;9.098;2023-04-02T04:10:30;101741.75;;;9.35;50.40
21109;BME280;10712;52.944;9.098;2023-04-02T04:13:14;101741.47;;;9.19;50.67
21109;BME280;10712;52.944;9.098;2023-04-02T04:15:54;101742.75;;;9.32;50.16
21109;BME280;10712;52.944;9.098;2023-04-02T04:18:32;101749.56;;;9.39;50.05
21109;BME280;10712;52.944;9.098;2023-04-02T04:21:21;101757.06;;;9.52;49.67
21109;BME280;10712;52.944;9.098;2023-04-02T04:26:51;101767.47;;;9.58;49.12
21109;BME280;10712;52.944;9.098;2023-04-02T04:29:38;101763.41;;;9.47;48.96
21109;BME280;10712;52.944;9.098;2023-04-02T04:32:37;101770.03;;;9.37;49.14
21109;BME280;10712;52.944;9.098;2023-04-02T04:35:59;101773.88;;;9.29;49.28
21109;BME280;10712;52.944;9.098;2023-04-02T04:38:31;101781.72;;;9.33;49.14
21109;BME280;10712;52.944;9.098;2023-04-02T04:41:22;101799.81;;;9.22;49.44
21109;BME280;10712;52.944;9.098;2023-04-02T04:44:05;101805.13;;;9.22;49.50
21109;BME280;10712;52.944;9.098;2023-04-02T04:46:59;101817.44;;;9.26;49.59
21109;BME280;10712;52.944;9.098;2023-04-02T04:49:35;101822.53;;;9.32;49.69
21109;BME280;10712;52.944;9.098;2023-04-02T04:52:25;101825.88;;;9.37;49.73
21109;BME280;10712;52.944;9.098;2023-04-02T04:54:51;101826.75;;;9.38;49.59
21109;BME280;10712;52.944;9.098;2023-04-02T04:57:31;101828.47;;;9.39;50.01
21109;BME280;10712;52.944;9.098;2023-04-02T05:00:38;101833.63;;;9.43;49.85
21109;BME280;10712;52.944;9.098;2023-04-02T05:06:38;101846.69;;;9.49;49.88
21109;BME280;10712;52.944;9.098;2023-04-02T05:09:19;101846.94;;;9.43;49.82
21109;BME280;10712;52.944;9.098;2023-04-02T05:15:14;101862.66;;;9.49;49.86
21109;BME280;10712;52.944;9.098;2023-04-02T05:18:38;101870.50;;;9.54;49.71
21109;BME280;10712;52.944;9.098;2023-04-02T05:21:21;101871.94;;;9.63;49.50
21109;BME280;10712;52.944;9.098;2023-04-02T05:26:43;101873.22;;;9.53;49.52
21109;BME280;10712;52.944;9.098;2023-04-02T05:29:24;101896.44;;;9.72;49.12
21109;BME280;10712;52.944;9.098;2023-04-02T05:32:23;101892.94;;;9.70;49.33
21109;BME280;10712;52.944;9.098;2023-04-02T05:34:54;101893.50;;;9.80;48.74
21109;BME280;10712;52.944;9.098;2023-04-02T05:37:25;101899.56;;;9.83;48.87
21109;BME280;10712;52.944;9.098;2023-04-02T05:39:56;101908.25;;;9.88;48.58
21109;BME280;10712;52.944;9.098;2023-04-02T05:42:30;101910.97;;;9.87;48.72
21109;BME280;10712;52.944;9.098;2023-04-02T05:45:45;101924.06;;;9.93;48.69
21109;BME280;10712;52.944;9.098;2023-04-02T05:48:24;101921.91;;;10.03;48.44
21109;BME280;10712;52.944;9.098;2023-04-02T05:50:55;101920.81;;;10.08;48.39
21109;BME280;10712;52.944;9.098;2023-04-02T05:53:48;101929.97;;;10.01;48.48
21109;BME280;10712;52.944;9.098;2023-04-02T05:56:31;101936.47;;;10.17;48.51
21109;BME280;10712;52.944;9.098;2023-04-02T05:59:36;101945.19;;;10.22;48.60
21109;BME280;10712;52.944;9.098;2023-04-02T06:02:26;101951.44;;;10.21;48.63
21109;BME280;10712;52.944;9.098;2023-04-02T06:05:14;101951.50;;;9.95;48.57
21109;BME280;10712;52.944;9.098;2023-04-02T06:10:31;101962.53;;;10.33;47.82
21109;BME280;10712;52.944;9.098;2023-04-02T06:13:04;101962.06;;;10.45;47.86
21109;BME280;10712;52.944;9.098;2023-04-02T06:15:37;101975.28;;;10.48;47.76
21109;BME280;10712;52.944;9.098;2023-04-02T06:18:18;101974.13;;;10.55;47.48
21109;BME280;10712;52.944;9.098;2023-04-02T06:20:46;101983.03;;;10.54;47.76
21109;BME280;10712;52.944;9.098;2023-04-02T06:23:49;101983.03;;;10.54;48.06
21109;BME280;10712;52.944;9.098;2023-04-02T06:26:40;101998.63;;;10.41;48.12
21109;BME280;10712;52.944;9.098;2023-04-02T06:29:30;101999.03;;;10.54;48.02
21109;BME280;10712;52.944;9.098;2023-04-02T06:32:01;102008.56;;;10.59;48.28
21109;BME280;10712;52.944;9.098;2023-04-02T06:34:29;102003.88;;;10.66;48.51
21109;BME280;10712;52.944;9.098;2023-04-02T06:39:57;102004.69;;;10.68;48.19
21109;BME280;10712;52.944;9.098;2023-04-02T06:42:39;102023.69;;;10.59;48.14
21109;BME280;10712;52.944;9.098;2023-04-02T06:45:42;102017.91;;;10.71;48.12
21109;BME280;10712;52.944;9.098;2023-04-02T06:48:32;102028.00;;;10.63;48.23
21109;BME280;10712;52.944;9.098;2023-04-02T06:51:10;102031.28;;;10.70;47.88
21109;BME280;10712;52.944;9.098;2023-04-02T06:53:42;102040.75;;;10.78;47.70
21109;BME280;10712;52.944;9.098;2023-04-02T06:56:44;102046.06;;;10.78;48.58
21109;BME280;10712;52.944;9.098;2023-04-02T06:59:15;102054.41;;;10.92;48.11
21109;BME280;10712;52.944;9.098;2023-04-02T07:04:14;102055.66;;;11.05;47.46
21109;BME280;10712;52.944;9.098;2023-04-02T07:06:43;102059.31;;;11.03;47.73
21109;BME280;10712;52.944;9.098;2023-04-02T07:09:12;102062.72;;;11.06;47.42
21109;BME280;10712;52.944;9.098;2023-04-02T07:11:41;102065.94;;;11.15;47.24
21109;BME280;10712;52.944;9.098;2023-04-02T07:14:12;102076.38;;;11.21;47.29
21109;BME280;10712;52.944;9.098;2023-04-02T07:16:40;102072.53;;;11.28;47.07
21109;BME280;10712;52.944;9.098;2023-04-02T07:19:16;102078.56;;;11.33;46.97
21109;BME280;10712;52.944;9.098;2023-04-02T07:21:42;102087.13;;;11.41;47.03
21109;BME280;10712;52.944;9.098;2023-04-02T07:24:08;102088.59;;;11.48;47.26
21109;BME280;10712;52.944;9.098;2023-04-02T07:26:33;102089.31;;;11.53;47.17
21109;BME280;10712;52.944;9.098;2023-04-02T07:28:59;102101.59;;;11.57;46.98
21109;BME280;10712;52.944;9.098;2023-04-02T07:31:27;102089.94;;;11.60;46.95
21109;BME280;10712;52.944;9.098;2023-04-02T07:33:58;102101.22;;;11.66;46.58
21109;BME280;10712;52.944;9.098;2023-04-02T07:36:26;102109.94;;;11.70;46.24
21109;BME280;10712;52.944;9.098;2023-04-02T07:38:53;102103.69;;;11.71;46.13
21109;BME280;10712;52.944;9.098;2023-04-02T07:41:19;102115.16;;;11.74;46.03
21109;BME280;10712;52.944;9.098;2023-04-02T07:43:45;102115.84;;;11.79;46.00
21109;BME280;10712;52.944;9.098;2023-04-02T07:46:12;102118.34;;;11.82;46.00
21109;BME280;10712;52.944;9.098;2023-04-02T07:48:42;102120.91;;;11.86;45.72
21109;BME280;10712;52.944;9.098;2023-04-02T07:51:20;102128.00;;;11.87;45.42
21109;BME280;10712;52.944;9.098;2023-04-02T07:53:47;102130.41;;;11.93;45.45
21109;BME280;10712;52.944;9.098;2023-04-02T07:56:18;102132.81;;;11.99;45.61
21109;BME280;10712;52.944;9.098;2023-04-02T07:58:44;102136.09;;;12.05;45.40
21109;BME280;10712;52.944;9.098;2023-04-02T08:01:25;102136.91;;;12.07;45.44
21109;BME280;10712;52.944;9.098;2023-04-02T08:03:53;102145.53;;;12.14;45.33
21109;BME280;10712;52.944;9.098;2023-04-02T08:06:21;102143.53;;;12.19;45.48
21109;BME280;10712;52.944;9.098;2023-04-02T08:08:47;102157.56;;;12.24;45.22
21109;BME280;10712;52.944;9.098;2023-04-02T08:11:13;102151.38;;;12.23;45.22
21109;BME280;10712;52.944;9.098;2023-04-02T08:13:39;102155.56;;;12.29;45.23
21109;BME280;10712;52.944;9.098;2023-04-02T08:16:05;102155.16;;;12.38;45.28
21109;BME280;10712;52.944;9.098;2023-04-02T08:18:32;102156.38;;;12.51;45.18
21109;BME280;10712;52.944;9.098;2023-04-02T08:20:58;102169.47;;;12.57;45.18
21109;BME280;10712;52.944;9.098;2023-04-02T08:23:25;102175.59;;;12.59;45.20
21109;BME280;10712;52.944;9.098;2023-04-02T08:25:53;102176.41;;;12.61;44.99
21109;BME280;10712;52.944;9.098;2023-04-02T08:28:20;102180.69;;;12.66;44.95
21109;BME280;10712;52.944;9.098;2023-04-02T08:30:47;102192.41;;;12.63;44.86
21109;BME280;10712;52.944;9.098;2023-04-02T08:33:17;102196.72;;;12.66;44.93
21109;BME280;10712;52.944;9.098;2023-04-02T08:35:46;102200.75;;;12.76;44.65
21109;BME280;10712;52.944;9.098;2023-04-02T08:38:14;102203.75;;;12.88;44.55
21109;BME280;10712;52.944;9.098;2023-04-02T08:40:45;102204.06;;;13.01;44.27
21109;BME280;10712;52.944;9.098;2023-04-02T08:43:34;102213.41;;;13.11;43.92
21109;BME280;10712;52.944;9.098;2023-04-02T08:46:18;102220.78;;;13.26;43.56
21109;BME280;10712;52.944;9.098;2023-04-02T08:48:58;102217.66;;;13.35;43.41
21109;BME280;10712;52.944;9.098;2023-04-02T08:51:33;102222.66;;;13.43;43.45
21109;BME280;10712;52.944;9.098;2023-04-02T08:54:11;102221.06;;;13.58;43.33
21109;BME280;10712;52.944;9.098;2023-04-02T08:56:46;102233.09;;;13.68;43.00
21109;BME280;10712;52.944;9.098;2023-04-02T08:59:38;102230.13;;;13.74;42.37
21109;BME280;10712;52.944;9.098;2023-04-02T09:05:04;102224.50;;;13.97;41.98
21109;BME280;10712;52.944;9.098;2023-04-02T09:07:31;102231.19;;;14.07;42.25
21109;BME280;10712;52.944;9.098;2023-04-02T09:09:58;102234.19;;;14.18;42.41
21109;BME280;10712;52.944;9.098;2023-04-02T09:12:29;102237.66;;;14.20;42.39
21109;BME280;10712;52.944;9.098;2023-04-02T09:17:43;102248.53;;;14.17;42.01
21109;BME280;10712;52.944;9.098;2023-04-02T09:20:24;102249.88;;;13.90;41.47
21109;BME280;10712;52.944;9.098;2023-04-02T09:22:51;102248.53;;;13.82;41.50
21109;BME280;10712;52.944;9.098;2023-04-02T09:25:28;102255.59;;;13.64;41.44
21109;BME280;10712;52.944;9.098;2023-04-02T09:28:00;102245.69;;;13.47;41.36
21109;BME280;10712;52.944;9.098;2023-04-02T09:33:08;102260.38;;;13.38;41.78
21109;BME280;10712;52.944;9.098;2023-04-02T09:38:27;102261.88;;;13.44;41.23
21109;BME280;10712;52.944;9.098;2023-04-02T09:46:17;102266.84;;;13.72;41.64
21109;BME280;10712;52.944;9.098;2023-04-02T09:48:52;102269.72;;;13.86;41.40
21109;BME280;10712;52.944;9.098;2023-04-02T09:51:31;102264.34;;;14.05;41.39
21109;BME280;10712;52.944;9.098;2023-04-02T09:56:30;102279.53;;;14.42;41.05
21109;BME280;10712;52.944;9.098;2023-04-02T10:04:45;102292.41;;;14.87;40.61
21109;BME280;10712;52.944;9.098;2023-04-02T10:07:47;102288.88;;;15.04;41.01
21109;BME280;10712;52.944;9.098;2023-04-02T10:10:36;102286.47;;;15.15;40.45
21109;BME280;10712;52.944;9.098;2023-04-02T10:13:27;102289.47;;;15.26;40.27
21109;BME280;10712;52.944;9.098;2023-04-02T10:18:56;102295.59;;;15.45;39.84
21109;BME280;10712;52.944;9.098;2023-04-02T10:21:43;102298.75;;;15.53;39.58
21109;BME280;10712;52.944;9.098;2023-04-02T10:24:14;102309.16;;;15.59;39.50
21109;BME280;10712;52.944;9.098;2023-04-02T10:33:28;102315.47;;;15.75;39.42
21109;BME280;10712;52.944;9.098;2023-04-02T10:39:01;102322.88;;;15.70;39.07
21109;BME280;10712;52.944;9.098;2023-04-02T10:52:19;102331.31;;;15.47;39.26
21109;BME280;10712;52.944;9.098;2023-04-02T10:55:01;102333.84;;;15.33;38.01
21109;BME280;10712;52.944;9.098;2023-04-02T10:57:43;102333.91;;;15.49;39.61
21109;BME280;10712;52.944;9.098;2023-04-02T11:05:50;102329.84;;;15.74;38.13
21109;BME280;10712;52.944;9.098;2023-04-02T11:08:40;102345.97;;;15.74;39.65
21109;BME280;10712;52.944;9.098;2023-04-02T11:11:22;102346.84;;;15.91;38.73
21109;BME280;10712;52.944;9.098;2023-04-02T11:13:59;102352.50;;;16.02;38.91
21109;BME280;10712;52.944;9.098;2023-04-02T11:16:27;102346.78;;;16.08;38.61
21109;BME280;10712;52.944;9.098;2023-04-02T11:21:46;102345.13;;;16.05;39.01
21109;BME280;10712;52.944;9.098;2023-04-02T11:29:43;102358.31;;;16.41;37.88
21109;BME280;10712;52.944;9.098;2023-04-02T11:37:37;102366.66;;;16.52;38.22
21109;BME280;10712;52.944;9.098;2023-04-02T11:40:50;102371.09;;;16.22;39.07
21109;BME280;10712;52.944;9.098;2023-04-02T11:48:55;102369.16;;;16.40;37.56
21109;BME280;10712;52.944;9.098;2023-04-02T11:51:45;102363.34;;;16.47;37.40
21109;BME280;10712;52.944;9.098;2023-04-02T11:54:25;102369.97;;;16.58;37.79
21109;BME280;10712;52.944;9.098;2023-04-02T11:57:06;102371.53;;;16.62;37.38
21109;BME280;10712;52.944;9.098;2023-04-02T12:09:22;102379.22;;;16.05;36.66
21109;BME280;10712;52.944;9.098;2023-04-02T12:11:55;102381.03;;;15.89;36.34
21109;BME280;10712;52.944;9.098;2023-04-02T12:14:44;102382.13;;;16.65;37.10
21109;BME280;10712;52.944;9.098;2023-04-02T12:19:52;102385.03;;;16.91;36.25
21109;BME280;10712;52.944;9.098;2023-04-02T12:22:26;102374.56;;;17.01;35.86
21109;BME280;10712;52.944;9.098;2023-04-02T12:25:06;102383.34;;;17.05;35.94
21109;BME280;10712;52.944;9.098;2023-04-02T12:27:44;102391.66;;;17.16;36.06
21109;BME280;10712;52.944;9.098;2023-04-02T12:30:17;102393.47;;;17.15;35.98
21109;BME280;10712;52.944;9.098;2023-04-02T12:32:43;102387.66;;;17.37;36.19
21109;BME280;10712;52.944;9.098;2023-04-02T12:35:33;102392.47;;;17.32;35.41
21109;BME280;10712;52.944;9.098;2023-04-02T12:37:59;102397.53;;;17.22;35.63
21109;BME280;10712;52.944;9.098;2023-04-02T12:40:26;102397.31;;;17.11;35.69
21109;BME280;10712;52.944;9.098;2023-04-02T12:42:52;102400.44;;;17.19;35.85
21109;BME280;10712;52.944;9.098;2023-04-02T12:45:27;102397.84;;;17.02;34.96
21109;BME280;10712;52.944;9.098;2023-04-02T12:47:56;102404.66;;;17.23;35.03
21109;BME280;10712;52.944;9.098;2023-04-02T12:50:25;102402.72;;;17.11;34.27
21109;BME280;10712;52.944;9.098;2023-04-02T12:52:53;102404.09;;;17.18;34.75
21109;BME280;10712;52.944;9.098;2023-04-02T12:55:25;102415.84;;;17.31;35.54
21109;BME280;10712;52.944;9.098;2023-04-02T12:57:58;102411.25;;;17.33;35.07
21109;BME280;10712;52.944;9.098;2023-04-02T13:05:40;102407.06;;;17.58;35.57
21109;BME280;10712;52.944;9.098;2023-04-02T13:08:25;102411.94;;;17.67;35.14
21109;BME280;10712;52.944;9.098;2023-04-02T13:10:58;102410.19;;;17.66;34.83
21109;BME280;10712;52.944;9.098;2023-04-02T13:13:33;102409.63;;;17.75;35.08
21109;BME280;10712;52.944;9.098;2023-04-02T13:18:41;102419.53;;;17.75;34.35
21109;BME280;10712;52.944;9.098;2023-04-02T13:23:43;102420.91;;;17.82;35.38
21109;BME280;10712;52.944;9.098;2023-04-02T13:26:23;102418.34;;;17.64;34.59
21109;BME280;10712;52.944;9.098;2023-04-02T13:31:49;102428.47;;;17.61;34.77
21109;BME280;10712;52.944;9.098;2023-04-02T13:34:15;102432.25;;;17.73;34.89
21109;BME280;10712;52.944;9.098;2023-04-02T13:36:43;102422.16;;;17.76;34.64
21109;BME280;10712;52.944;9.098;2023-04-02T13:39:09;102425.59;;;17.92;34.80
21109;BME280;10712;52.944;9.098;2023-04-02T13:41:59;102426.69;;;17.90;35.00
21109;BME280;10712;52.944;9.098;2023-04-02T13:44:31;102431.41;;;18.00;34.37
21109;BME280;10712;52.944;9.098;2023-04-02T13:46:57;102424.84;;;17.76;33.85
21109;BME280;10712;52.944;9.098;2023-04-02T13:49:25;102432.56;;;17.82;34.70
21109;BME280;10712;52.944;9.098;2023-04-02T13:52:01;102439.25;;;17.61;35.17
21109;BME280;10712;52.944;9.098;2023-04-02T13:54:53;102432.25;;;17.57;34.42
21109;BME280;10712;52.944;9.098;2023-04-02T13:57:20;102425.72;;;17.47;34.72
21109;BME280;10712;52.944;9.098;2023-04-02T13:59:46;102429.13;;;17.64;34.02
21109;BME280;10712;52.944;9.098;2023-04-02T14:02:16;102432.25;;;17.73;34.31
21109;BME280;10712;52.944;9.098;2023-04-02T14:04:59;102438.31;;;17.62;34.40
21109;BME280;10712;52.944;9.098;2023-04-02T14:13:51;102441.69;;;17.94;34.50
21109;BME280;10712;52.944;9.098;2023-04-02T14:20:19;102439.50;;;18.15;33.90
21109;BME280;10712;52.944;9.098;2023-04-02T14:25:40;102442.56;;;18.23;34.59
21109;BME280;10712;52.944;9.098;2023-04-02T14:34:24;102453.53;;;17.63;34.13
21109;BME280;10712;52.944;9.098;2023-04-02T14:39:49;102451.50;;;17.66;33.46
21109;BME280;10712;52.944;9.098;2023-04-02T14:42:56;102455.84;;;17.69;33.68
21109;BME280;10712;52.944;9.098;2023-04-02T14:48:36;102459.31;;;17.85;33.66
21109;BME280;10712;52.944;9.098;2023-04-02T14:51:36;102453.75;;;17.88;34.31
21109;BME280;10712;52.944;9.098;2023-04-02T14:54:33;102453.16;;;17.83;33.89
21109;BME280;10712;52.944;9.098;2023-04-02T15:02:23;102454.28;;;17.79;34.33
21109;BME280;10712;52.944;9.098;2023-04-02T15:05:01;102460.06;;;17.73;33.60
21109;BME280;10712;52.944;9.098;2023-04-02T15:07:40;102456.03;;;17.80;33.53
21109;BME280;10712;52.944;9.098;2023-04-02T15:10:24;102457.00;;;17.79;33.51
21109;BME280;10712;52.944;9.098;2023-04-02T15:12:54;102462.88;;;17.86;33.43
21109;BME280;10712;52.944;9.098;2023-04-02T15:15:55;102468.19;;;17.87;34.95
21109;BME280;10712;52.944;9.098;2023-04-02T15:18:23;102474.94;;;17.94;35.03
21109;BME280;10712;52.944;9.098;2023-04-02T15:31:45;102487.09;;;17.42;34.79
21109;BME280;10712;52.944;9.098;2023-04-02T15:34:49;102489.59;;;17.45;34.85
21109;BME280;10712;52.944;9.098;2023-04-02T15:37:39;102488.47;;;17.49;34.61
21109;BME280;10712;52.944;9.098;2023-04-02T15:40:45;102483.09;;;17.49;35.21
21109;BME280;10712;52.944;9.098;2023-04-02T15:43:38;102496.91;;;17.43;34.58
21109;BME280;10712;52.944;9.098;2023-04-02T15:52:22;102515.75;;;17.43;34.64
21109;BME280;10712;52.944;9.098;2023-04-02T15:55:25;102511.75;;;17.20;35.51
21109;BME280;10712;52.944;9.098;2023-04-02T15:58:14;102513.22;;;17.10;35.89
21109;BME280;10712;52.944;9.098;2023-04-02T16:01:13;102523.66;;;17.00;35.65
21109;BME280;10712;52.944;9.098;2023-04-02T16:04:09;102513.84;;;17.15;35.35
21109;BME280;10712;52.944;9.098;2023-04-02T16:12:29;102533.22;;;17.21;35.07
21109;BME280;10712;52.944;9.098;2023-04-02T16:15:35;102548.56;;;17.04;35.23
21109;BME280;10712;52.944;9.098;2023-04-02T16:18:40;102553.34;;;16.83;35.58
21109;BME280;10712;52.944;9.098;2023-04-02T16:21:15;102556.28;;;16.63;35.80
21109;BME280;10712;52.944;9.098;2023-04-02T16:23:43;102558.47;;;16.54;36.04
21109;BME280;10712;52.944;9.098;2023-04-02T16:32:41;102579.72;;;16.26;36.36
21109;BME280;10712;52.944;9.098;2023-04-02T16:35:35;102582.81;;;16.19;36.63
21109;BME280;10712;52.944;9.098;2023-04-02T16:38:48;102584.59;;;16.02;36.37
21109;BME280;10712;52.944;9.098;2023-04-02T16:44:46;102598.09;;;16.18;36.60
21109;BME280;10712;52.944;9.098;2023-04-02T16:47:42;102604.88;;;16.25;37.71
21109;BME280;10712;52.944;9.098;2023-04-02T16:59:06;102632.50;;;15.94;37.78
21109;BME280;10712;52.944;9.098;2023-04-02T17:01:52;102642.53;;;15.91;37.63
21109;BME280;10712;52.944;9.098;2023-04-02T17:08:23;102658.00;;;15.68;37.57
21109;BME280;10712;52.944;9.098;2023-04-02T17:13:56;102664.25;;;15.69;37.67
21109;BME280;10712;52.944;9.098;2023-04-02T17:16:42;102665.13;;;15.69;37.86
21109;BME280;10712;52.944;9.098;2023-04-02T17:19:12;102666.84;;;15.70;38.23
21109;BME280;10712;52.944;9.098;2023-04-02T17:21:45;102668.00;;;15.65;38.48
21109;BME280;10712;52.944;9.098;2023-04-02T17:27:06;102678.47;;;15.52;38.64
21109;BME280;10712;52.944;9.098;2023-04-02T17:29:43;102682.25;;;15.48;38.51
21109;BME280;10712;52.944;9.098;2023-04-02T17:32:30;102679.19;;;15.37;38.64
21109;BME280;10712;52.944;9.098;2023-04-02T17:35:36;102675.56;;;15.19;38.67
21109;BME280;10712;52.944;9.098;2023-04-02T17:38:20;102676.56;;;15.17;38.56
21109;BME280;10712;52.944;9.098;2023-04-02T17:41:09;102681.00;;;15.18;38.80
21109;BME280;10712;52.944;9.098;2023-04-02T17:44:02;102691.63;;;15.21;38.69